sensor_id;sensor_type;location;lat;lon;timestamp;pressure;altitude;pressure_sealevel;temperature;humidity
48968;BME280;46511;53.148;8.204;2023-04-05T00:01:06;102597.00;;;2.79;100.00
48968;BME280;46511;53.148;8.204;2023-04-05T00:03:38;102600.44;;;2.70;100.00
48968;BME280;46511;53.148;8.204;2023-04-05T00:06:10;102595.22;;;2.73;100.00
48968;BME280;46511;53.148;8.204;2023-04-05T00:08:43;102597.81;;;2.66;100.00
48968;BME280;46511;53.148;8.204;2023-04-05T00:11:20;102596.91;;;2.64;100.00
48968;BME280;46511;53.148;8.204;2023-04-05T00:13:52;102600.41;;;2.56;100.00
48968;BME280;46511;53.148;8.204;2023-04-05T00:16:23;102594.22;;;2.53;100.00
48968;BME280;46511;53.148;8.204;2023-04-05T00:18:58;102598.56;;;2.46;100.00
48968;BME280;46511;53.148;8.204;2023-04-05T00:21:30;102593.31;;;2.43;100.00
48968;BME280;46511;53.148;8.204;2023-04-05T00:24:03;102588.03;;;2.39;100.00
48968;BME280;46511;53.148;8.204;2023-04-05T00:26:35;102588.03;;;2.37;100.00
48968;BME280;46511;53.148;8.204;2023-04-05T00:29:06;102586.31;;;2.38;100.00
48968;BME280;46511;53.148;8.204;2023-04-05T00:31:37;102589.75;;;2.35;100.00
48968;BME280;46511;53.148;8.204;2023-04-05T00:34:08;102581.00;;;2.33;100.00
48968;BME280;46511;53.148;8.204;2023-04-05T00:36:42;102580.94;;;2.24;100.00
48968;BME280;46511;53.148;8.204;2023-04-05T00:39:13;102578.31;;;2.22;100.00
48968;BME280;46511;53.148;8.204;2023-04-05T00:41:44;102571.31;;;2.21;100.00
48968;BME280;46511;53.148;8.204;2023-04-05T00:44:15;102569.53;;;2.16;100.00
48968;BME280;46511;53.148;8.204;2023-04-05T00:46:47;102565.16;;;2.12;100.00
48968;BME280;46511;53.148;8.204;2023-04-05T00:49:18;102564.28;;;2.13;100.00
48968;BME280;46511;53.148;8.204;2023-04-05T00:51:50;102566.84;;;2.07;100.00
48968;BME280;46511;53.148;8.204;2023-04-05T00:54:22;102570.38;;;2.09;100.00
48968;BME280;46511;53.148;8.204;2023-04-05T00:56:55;102567.72;;;2.06;100.00
48968;BME280;46511;53.148;8.204;2023-04-05T00:59:27;102568.59;;;2.05;100.00
48968;BME280;46511;53.148;8.204;2023-04-05T01:02:03;102564.22;;;2.02;100.00
48968;BME280;46511;53.148;8.204;2023-04-05T01:04:43;102564.22;;;2.07;100.00
48968;BME280;46511;53.148;8.204;2023-04-05T01:07:22;102565.06;;;1.99;100.00
48968;BME280;46511;53.148;8.204;2023-04-05T01:09:58;102563.28;;;1.98;100.00
48968;BME280;46511;53.148;8.204;2023-04-05T01:12:31;102563.22;;;1.86;100.00
48968;BME280;46511;53.148;8.204;2023-04-05T01:15:04;102565.81;;;1.82;100.00
48968;BME280;46511;53.148;8.204;2023-04-05T01:17:35;102564.88;;;1.78;100.00
48968;BME280;46511;53.148;8.204;2023-04-05T01:20:09;102564.94;;;1.81;100.00
48968;BME280;46511;53.148;8.204;2023-04-05T01:22:56;102557.88;;;1.74;100.00
48968;BME280;46511;53.148;8.204;2023-04-05T01:34:47;102559.56;;;1.69;100.00
48968;BME280;46511;53.148;8.204;2023-04-05T01:37:25;102556.94;;;1.67;100.00
48968;BME280;46511;53.148;8.204;2023-04-05T01:40:00;102556.00;;;1.58;100.00
48968;BME280;46511;53.148;8.204;2023-04-05T01:42:34;102559.53;;;1.63;100.00
48968;BME280;46511;53.148;8.204;2023-04-05T01:45:06;102562.16;;;1.61;100.00
48968;BME280;46511;53.148;8.204;2023-04-05T01:47:37;102549.88;;;1.57;100.00
48968;BME280;46511;53.148;8.204;2023-04-05T01:50:08;102545.56;;;1.64;100.00
48968;BME280;46511;53.148;8.204;2023-04-05T01:52:40;102547.31;;;1.62;100.00
48968;BME280;46511;53.148;8.204;2023-04-05T01:55:11;102544.69;;;1.63;100.00
48968;BME280;46511;53.148;8.204;2023-04-05T01:57:42;102542.03;;;1.59;100.00
48968;BME280;46511;53.148;8.204;2023-04-05T02:00:14;102538.53;;;1.58;100.00
48968;BME280;46511;53.148;8.204;2023-04-05T02:02:46;102541.16;;;1.58;100.00
48968;BME280;46511;53.148;8.204;2023-04-05T02:05:17;102540.25;;;1.55;100.00
48968;BME280;46511;53.148;8.204;2023-04-05T02:07:48;102540.25;;;1.55;100.00
48968;BME280;46511;53.148;8.204;2023-04-05T02:10:21;102534.13;;;1.53;100.00
48968;BME280;46511;53.148;8.204;2023-04-05T02:12:52;102533.28;;;1.57;100.00
48968;BME280;46511;53.148;8.204;2023-04-05T02:15:23;102533.34;;;1.66;100.00
48968;BME280;46511;53.148;8.204;2023-04-05T02:17:55;102529.88;;;1.67;100.00
48968;BME280;46511;53.148;8.204;2023-04-05T02:20:26;102532.50;;;1.67;100.00
48968;BME280;46511;53.148;8.204;2023-04-05T02:22:58;102533.38;;;1.69;100.00
48968;BME280;46511;53.148;8.204;2023-04-05T02:25:30;102528.94;;;1.60;100.00
48968;BME280;46511;53.148;8.204;2023-04-05T02:28:01;102531.53;;;1.56;100.00
48968;BME280;46511;53.148;8.204;2023-04-05T02:30:32;102537.56;;;1.47;100.00
48968;BME280;46511;53.148;8.204;2023-04-05T02:33:04;102519.22;;;1.46;100.00
48968;BME280;46511;53.148;8.204;2023-04-05T02:35:35;102526.22;;;1.50;100.00
48968;BME280;46511;53.148;8.204;2023-04-05T02:38:06;102528.81;;;1.45;100.00
48968;BME280;46511;53.148;8.204;2023-04-05T02:40:38;102531.44;;;1.43;100.00
48968;BME280;46511;53.148;8.204;2023-04-05T02:43:11;102525.28;;;1.41;100.00
48968;BME280;46511;53.148;8.204;2023-04-05T02:45:37;102521.81;;;1.42;100.00
48968;BME280;46511;53.148;8.204;2023-04-05T02:48:09;102518.34;;;1.43;100.00
48968;BME280;46511;53.148;8.204;2023-04-05T02:50:40;102526.22;;;1.47;100.00
48968;BME280;46511;53.148;8.204;2023-04-05T02:53:11;102520.09;;;1.43;100.00
48968;BME280;46511;53.148;8.204;2023-04-05T02:55:52;102523.53;;;1.39;100.00
48968;BME280;46511;53.148;8.204;2023-04-05T02:58:25;102533.13;;;1.41;100.00
48968;BME280;46511;53.148;8.204;2023-04-05T03:00:56;102522.66;;;1.38;100.00
48968;BME280;46511;53.148;8.204;2023-04-05T03:03:31;102513.03;;;1.36;100.00
48968;BME280;46511;53.148;8.204;2023-04-05T03:06:06;102512.09;;;1.32;100.00
48968;BME280;46511;53.148;8.204;2023-04-05T03:08:41;102518.97;;;1.21;100.00
48968;BME280;46511;53.148;8.204;2023-04-05T03:11:17;102516.47;;;1.30;100.00
48968;BME280;46511;53.148;8.204;2023-04-05T03:13:48;102510.34;;;1.28;100.00
48968;BME280;46511;53.148;8.204;2023-04-05T03:16:20;102514.69;;;1.29;100.00
48968;BME280;46511;53.148;8.204;2023-04-05T03:18:52;102511.19;;;1.26;100.00
48968;BME280;46511;53.148;8.204;2023-04-05T03:21:23;102513.75;;;1.20;100.00
48968;BME280;46511;53.148;8.204;2023-04-05T03:23:54;102509.38;;;1.19;100.00
48968;BME280;46511;53.148;8.204;2023-04-05T03:26:26;102503.28;;;1.23;100.00
48968;BME280;46511;53.148;8.204;2023-04-05T03:28:57;102501.50;;;1.17;100.00
48968;BME280;46511;53.148;8.204;2023-04-05T03:31:28;102511.09;;;1.17;100.00
48968;BME280;46511;53.148;8.204;2023-04-05T03:34:00;102508.41;;;1.10;100.00
48968;BME280;46511;53.148;8.204;2023-04-05T03:36:31;102504.91;;;1.10;100.00
48968;BME280;46511;53.148;8.204;2023-04-05T03:39:12;102507.56;;;1.13;100.00
48968;BME280;46511;53.148;8.204;2023-04-05T03:41:43;102516.28;;;1.12;100.00
48968;BME280;46511;53.148;8.204;2023-04-05T03:44:14;102510.13;;;1.07;100.00
48968;BME280;46511;53.148;8.204;2023-04-05T03:46:46;102508.34;;;1.03;100.00
48968;BME280;46511;53.148;8.204;2023-04-05T03:49:17;102511.81;;;1.02;100.00
48968;BME280;46511;53.148;8.204;2023-04-05T03:51:49;102506.56;;;0.99;100.00
48968;BME280;46511;53.148;8.204;2023-04-05T03:54:20;102507.44;;;0.98;100.00
48968;BME280;46511;53.148;8.204;2023-04-05T03:56:52;102501.25;;;0.93;100.00
48968;BME280;46511;53.148;8.204;2023-04-05T03:59:23;102500.38;;;0.92;100.00
48968;BME280;46511;53.148;8.204;2023-04-05T04:01:54;102502.03;;;0.84;100.00
48968;BME280;46511;53.148;8.204;2023-04-05T04:04:26;102497.63;;;0.78;100.00
48968;BME280;46511;53.148;8.204;2023-04-05T04:06:57;102499.38;;;0.81;100.00
48968;BME280;46511;53.148;8.204;2023-04-05T04:09:29;102501.13;;;0.80;100.00
48968;BME280;46511;53.148;8.204;2023-04-05T04:12:01;102503.75;;;0.82;100.00
48968;BME280;46511;53.148;8.204;2023-04-05T04:14:35;102494.13;;;0.78;100.00
48968;BME280;46511;53.148;8.204;2023-04-05T04:17:06;102495.81;;;0.74;100.00
48968;BME280;46511;53.148;8.204;2023-04-05T04:19:37;102500.13;;;0.69;100.00
48968;BME280;46511;53.148;8.204;2023-04-05T04:22:08;102491.34;;;0.66;100.00
48968;BME280;46511;53.148;8.204;2023-04-05T04:24:40;102495.69;;;0.62;100.00
48968;BME280;46511;53.148;8.204;2023-04-05T04:27:16;102496.53;;;0.58;100.00
48968;BME280;46511;53.148;8.204;2023-04-05T04:29:47;102493.03;;;0.57;100.00
48968;BME280;46511;53.148;8.204;2023-04-05T04:32:18;102493.94;;;0.61;100.00
48968;BME280;46511;53.148;8.204;2023-04-05T04:34:56;102491.28;;;0.58;100.00
48968;BME280;46511;53.148;8.204;2023-04-05T04:37:28;102497.41;;;0.60;100.00
48968;BME280;46511;53.148;8.204;2023-04-05T04:40:00;102492.22;;;0.63;100.00
48968;BME280;46511;53.148;8.204;2023-04-05T04:42:36;102488.81;;;0.70;100.00
48968;BME280;46511;53.148;8.204;2023-04-05T04:45:09;102488.81;;;0.72;100.00
48968;BME280;46511;53.148;8.204;2023-04-05T04:47:42;102497.56;;;0.75;100.00
48968;BME280;46511;53.148;8.204;2023-04-05T04:50:14;102502.84;;;0.78;100.00
48968;BME280;46511;53.148;8.204;2023-04-05T04:52:46;102502.91;;;0.84;100.00
48968;BME280;46511;53.148;8.204;2023-04-05T04:55:18;102504.59;;;0.79;100.00
48968;BME280;46511;53.148;8.204;2023-04-05T04:57:55;102502.88;;;0.81;100.00
48968;BME280;46511;53.148;8.204;2023-04-05T05:00:26;102509.09;;;0.90;100.00
48968;BME280;46511;53.148;8.204;2023-04-05T05:02:58;102503.88;;;0.93;100.00
48968;BME280;46511;53.148;8.204;2023-04-05T05:05:29;102508.31;;;1.00;100.00
48968;BME280;46511;53.148;8.204;2023-04-05T05:08:00;102501.41;;;1.05;100.00
48968;BME280;46511;53.148;8.204;2023-04-05T05:10:32;102501.41;;;1.08;100.00
48968;BME280;46511;53.148;8.204;2023-04-05T05:13:03;102508.50;;;1.18;100.00
48968;BME280;46511;53.148;8.204;2023-04-05T05:15:34;102501.63;;;1.29;100.00
48968;BME280;46511;53.148;8.204;2023-04-05T05:18:05;102503.44;;;1.39;100.00
48968;BME280;46511;53.148;8.204;2023-04-05T05:20:38;102500.03;;;1.47;100.00
48968;BME280;46511;53.148;8.204;2023-04-05T05:23:09;102506.56;;;2.05;100.00
48968;BME280;46511;53.148;8.204;2023-04-05T05:25:41;102503.38;;;2.70;100.00
48968;BME280;46511;53.148;8.204;2023-04-05T05:28:12;102493.78;;;2.80;100.00
48968;BME280;46511;53.148;8.204;2023-04-05T05:30:43;102495.59;;;3.47;100.00
48968;BME280;46511;53.148;8.204;2023-04-05T05:33:15;102497.38;;;3.55;100.00
48968;BME280;46511;53.148;8.204;2023-04-05T05:35:49;102490.38;;;3.60;100.00
48968;BME280;46511;53.148;8.204;2023-04-05T05:38:21;102490.25;;;4.15;100.00
48968;BME280;46511;53.148;8.204;2023-04-05T05:40:56;102486.75;;;5.62;100.00
48968;BME280;46511;53.148;8.204;2023-04-05T05:43:28;102484.69;;;6.70;99.03
48968;BME280;46511;53.148;8.204;2023-04-05T05:46:00;102481.84;;;6.85;95.68
48968;BME280;46511;53.148;8.204;2023-04-05T05:48:32;102480.69;;;6.40;95.05
48968;BME280;46511;53.148;8.204;2023-04-05T05:51:03;102482.53;;;5.42;97.72
48968;BME280;46511;53.148;8.204;2023-04-05T05:53:39;102480.19;;;6.06;100.00
48968;BME280;46511;53.148;8.204;2023-04-05T05:56:10;102478.84;;;9.33;79.28
48968;BME280;46511;53.148;8.204;2023-04-05T05:58:42;102472.53;;;10.68;62.99
48968;BME280;46511;53.148;8.204;2023-04-05T06:01:14;102467.75;;;12.59;52.44
48968;BME280;46511;53.148;8.204;2023-04-05T06:03:45;102471.53;;;13.85;46.09
48968;BME280;46511;53.148;8.204;2023-04-05T06:06:16;102479.41;;;13.88;44.07
48968;BME280;46511;53.148;8.204;2023-04-05T06:08:47;102480.72;;;15.14;41.15
48968;BME280;46511;53.148;8.204;2023-04-05T06:11:19;102481.91;;;14.32;40.56
48968;BME280;46511;53.148;8.204;2023-04-05T06:13:54;102478.41;;;15.43;39.68
48968;BME280;46511;53.148;8.204;2023-04-05T06:16:26;102472.16;;;14.70;38.50
48968;BME280;46511;53.148;8.204;2023-04-05T06:18:57;102470.38;;;13.70;39.03
48968;BME280;46511;53.148;8.204;2023-04-05T06:21:28;102471.66;;;14.03;40.38
48968;BME280;46511;53.148;8.204;2023-04-05T06:24:01;102472.53;;;15.18;38.18
48968;BME280;46511;53.148;8.204;2023-04-05T06:26:32;102464.72;;;15.49;36.13
48968;BME280;46511;53.148;8.204;2023-04-05T06:28:58;102463.03;;;14.55;37.56
48968;BME280;46511;53.148;8.204;2023-04-05T06:31:31;102466.22;;;15.55;36.29
48968;BME280;46511;53.148;8.204;2023-04-05T06:34:04;102474.66;;;14.54;37.82
48968;BME280;46511;53.148;8.204;2023-04-05T06:36:35;102467.16;;;16.39;34.93
48968;BME280;46511;53.148;8.204;2023-04-05T06:39:07;102466.13;;;16.90;33.63
48968;BME280;46511;53.148;8.204;2023-04-05T06:41:38;102466.66;;;16.97;32.67
48968;BME280;46511;53.148;8.204;2023-04-05T06:44:10;102465.84;;;15.80;33.62
48968;BME280;46511;53.148;8.204;2023-04-05T06:46:41;102469.75;;;18.25;33.14
48968;BME280;46511;53.148;8.204;2023-04-05T06:49:13;102472.81;;;19.44;30.03
48968;BME280;46511;53.148;8.204;2023-04-05T06:51:44;102464.72;;;22.71;25.93
48968;BME280;46511;53.148;8.204;2023-04-05T06:54:15;102465.38;;;22.30;26.04
48968;BME280;46511;53.148;8.204;2023-04-05T06:56:46;102460.41;;;21.31;26.01
48968;BME280;46511;53.148;8.204;2023-04-05T06:59:18;102455.84;;;22.91;25.08
48968;BME280;46511;53.148;8.204;2023-04-05T07:01:49;102458.69;;;21.65;25.62
48968;BME280;46511;53.148;8.204;2023-04-05T07:04:21;102457.78;;;21.42;25.54
48968;BME280;46511;53.148;8.204;2023-04-05T07:06:52;102460.88;;;21.12;24.95
48968;BME280;46511;53.148;8.204;2023-04-05T07:09:23;102463.34;;;19.91;26.74
48968;BME280;46511;53.148;8.204;2023-04-05T07:11:55;102455.69;;;20.10;26.48
48968;BME280;46511;53.148;8.204;2023-04-05T07:14:30;102456.31;;;19.63;27.84
48968;BME280;46511;53.148;8.204;2023-04-05T07:17:06;102447.81;;;18.88;28.69
48968;BME280;46511;53.148;8.204;2023-04-05T07:19:37;102451.06;;;20.12;27.93
48968;BME280;46511;53.148;8.204;2023-04-05T07:22:08;102447.25;;;21.26;26.60
48968;BME280;46511;53.148;8.204;2023-04-05T07:24:40;102443.75;;;18.95;27.79
48968;BME280;46511;53.148;8.204;2023-04-05T07:27:11;102443.81;;;20.38;28.00
48968;BME280;46511;53.148;8.204;2023-04-05T07:29:42;102456.31;;;19.36;27.92
48968;BME280;46511;53.148;8.204;2023-04-05T07:32:14;102446.50;;;20.38;27.69
48968;BME280;46511;53.148;8.204;2023-04-05T07:34:45;102460.25;;;19.03;27.62
48968;BME280;46511;53.148;8.204;2023-04-05T07:37:17;102448.75;;;22.12;25.61
48968;BME280;46511;53.148;8.204;2023-04-05T07:39:49;102449.91;;;19.24;28.59
48968;BME280;46511;53.148;8.204;2023-04-05T07:42:20;102448.34;;;19.87;27.93
48968;BME280;46511;53.148;8.204;2023-04-05T07:44:51;102455.25;;;19.91;28.45
48968;BME280;46511;53.148;8.204;2023-04-05T07:47:23;102452.88;;;21.23;26.86
48968;BME280;46511;53.148;8.204;2023-04-05T07:49:54;102446.69;;;22.38;24.24
48968;BME280;46511;53.148;8.204;2023-04-05T07:52:25;102439.44;;;21.34;26.00
48968;BME280;46511;53.148;8.204;2023-04-05T07:54:57;102445.34;;;19.91;26.59
48968;BME280;46511;53.148;8.204;2023-04-05T07:57:28;102448.56;;;19.84;26.06
48968;BME280;46511;53.148;8.204;2023-04-05T07:59:59;102436.59;;;22.29;24.10
48968;BME280;46511;53.148;8.204;2023-04-05T08:02:31;102439.69;;;20.33;25.56
48968;BME280;46511;53.148;8.204;2023-04-05T08:05:02;102439.19;;;20.02;26.24
48968;BME280;46511;53.148;8.204;2023-04-05T08:07:33;102438.34;;;21.83;23.73
48968;BME280;46511;53.148;8.204;2023-04-05T08:10:05;102441.91;;;21.01;25.81
48968;BME280;46511;53.148;8.204;2023-04-05T08:12:36;102437.69;;;18.22;28.41
48968;BME280;46511;53.148;8.204;2023-04-05T08:15:08;102433.53;;;21.76;26.21
48968;BME280;46511;53.148;8.204;2023-04-05T08:17:39;102438.16;;;18.98;26.08
48968;BME280;46511;53.148;8.204;2023-04-05T08:20:11;102435.78;;;20.99;25.05
48968;BME280;46511;53.148;8.204;2023-04-05T08:22:42;102436.88;;;21.90;24.01
48968;BME280;46511;53.148;8.204;2023-04-05T08:25:13;102423.97;;;22.95;22.68
48968;BME280;46511;53.148;8.204;2023-04-05T08:27:45;102428.75;;;22.91;23.17
48968;BME280;46511;53.148;8.204;2023-04-05T08:30:16;102443.88;;;19.60;26.38
48968;BME280;46511;53.148;8.204;2023-04-05T08:32:49;102436.13;;;21.18;25.96
48968;BME280;46511;53.148;8.204;2023-04-05T08:35:21;102429.09;;;20.55;25.99
48968;BME280;46511;53.148;8.204;2023-04-05T08:37:52;102435.84;;;19.46;26.46
48968;BME280;46511;53.148;8.204;2023-04-05T08:40:25;102432.25;;;20.49;25.68
48968;BME280;46511;53.148;8.204;2023-04-05T08:43:22;102422.66;;;22.11;23.65
48968;BME280;46511;53.148;8.204;2023-04-05T08:46:11;102436.06;;;21.07;23.52
48968;BME280;46511;53.148;8.204;2023-04-05T08:48:45;102425.53;;;23.41;21.39
48968;BME280;46511;53.148;8.204;2023-04-05T08:51:17;102423.66;;;23.41;21.09
48968;BME280;46511;53.148;8.204;2023-04-05T08:53:50;102414.06;;;23.05;21.57
48968;BME280;46511;53.148;8.204;2023-04-05T08:56:26;102408.31;;;24.23;19.69
48968;BME280;46511;53.148;8.204;2023-04-05T08:59:03;102412.34;;;23.99;20.08
48968;BME280;46511;53.148;8.204;2023-04-05T09:01:36;102408.78;;;22.92;21.15
48968;BME280;46511;53.148;8.204;2023-04-05T09:04:15;102410.66;;;23.98;20.84
48968;BME280;46511;53.148;8.204;2023-04-05T09:06:48;102416.06;;;24.68;18.80
48968;BME280;46511;53.148;8.204;2023-04-05T09:09:21;102418.44;;;21.95;21.42
48968;BME280;46511;53.148;8.204;2023-04-05T09:11:53;102411.00;;;23.62;20.76
48968;BME280;46511;53.148;8.204;2023-04-05T09:14:27;102411.19;;;24.62;21.57
48968;BME280;46511;53.148;8.204;2023-04-05T09:17:01;102410.31;;;24.52;19.24
48968;BME280;46511;53.148;8.204;2023-04-05T09:19:33;102404.25;;;24.89;18.46
48968;BME280;46511;53.148;8.204;2023-04-05T09:22:05;102403.88;;;24.22;19.94
48968;BME280;46511;53.148;8.204;2023-04-05T09:24:41;102417.03;;;20.22;21.85
48968;BME280;46511;53.148;8.204;2023-04-05T09:27:18;102407.84;;;22.93;19.66
48968;BME280;46511;53.148;8.204;2023-04-05T09:29:50;102405.88;;;21.72;20.34
48968;BME280;46511;53.148;8.204;2023-04-05T09:32:24;102413.91;;;21.50;21.04
48968;BME280;46511;53.148;8.204;2023-04-05T09:34:57;102417.63;;;19.50;23.75
48968;BME280;46511;53.148;8.204;2023-04-05T09:37:31;102420.81;;;19.02;23.37
48968;BME280;46511;53.148;8.204;2023-04-05T09:40:02;102419.84;;;19.57;23.85
48968;BME280;46511;53.148;8.204;2023-04-05T09:42:42;102414.78;;;16.16;26.62
48968;BME280;46511;53.148;8.204;2023-04-05T09:45:17;102406.94;;;15.09;30.32
48968;BME280;46511;53.148;8.204;2023-04-05T09:47:55;102401.97;;;16.85;26.54
48968;BME280;46511;53.148;8.204;2023-04-05T09:50:27;102409.97;;;16.38;27.89
48968;BME280;46511;53.148;8.204;2023-04-05T09:53:06;102406.75;;;19.11;24.61
48968;BME280;46511;53.148;8.204;2023-04-05T09:55:45;102395.59;;;22.11;22.82
48968;BME280;46511;53.148;8.204;2023-04-05T09:58:20;102393.75;;;23.94;20.21
48968;BME280;46511;53.148;8.204;2023-04-05T10:00:52;102390.00;;;20.61;22.39
48968;BME280;46511;53.148;8.204;2023-04-05T10:03:24;102394.94;;;18.87;24.53
48968;BME280;46511;53.148;8.204;2023-04-05T10:05:55;102389.72;;;21.59;22.65
48968;BME280;46511;53.148;8.204;2023-04-05T10:08:26;102386.47;;;25.81;18.06
48968;BME280;46511;53.148;8.204;2023-04-05T10:10:58;102386.63;;;24.73;17.93
48968;BME280;46511;53.148;8.204;2023-04-05T10:13:34;102390.53;;;20.90;20.72
48968;BME280;46511;53.148;8.204;2023-04-05T10:16:06;102385.81;;;18.61;23.78
48968;BME280;46511;53.148;8.204;2023-04-05T10:18:44;102379.00;;;22.81;20.34
48968;BME280;46511;53.148;8.204;2023-04-05T10:21:22;102378.63;;;22.97;19.93
48968;BME280;46511;53.148;8.204;2023-04-05T10:24:08;102379.53;;;22.75;18.88
48968;BME280;46511;53.148;8.204;2023-04-05T10:26:59;102369.72;;;23.27;19.05
48968;BME280;46511;53.148;8.204;2023-04-05T10:30:02;102371.41;;;22.86;19.04
48968;BME280;46511;53.148;8.204;2023-04-05T10:43:44;102362.25;;;19.58;21.88
48968;BME280;46511;53.148;8.204;2023-04-05T10:46:19;102367.50;;;18.68;22.94
48968;BME280;46511;53.148;8.204;2023-04-05T10:49:07;102359.88;;;21.02;22.30
48968;BME280;46511;53.148;8.204;2023-04-05T10:51:46;102352.84;;;25.63;18.82
48968;BME280;46511;53.148;8.204;2023-04-05T10:54:18;102343.38;;;26.04;18.27
48968;BME280;46511;53.148;8.204;2023-04-05T10:56:50;102339.38;;;23.75;18.08
48968;BME280;46511;53.148;8.204;2023-04-05T10:59:21;102341.56;;;27.13;16.64
48968;BME280;46511;53.148;8.204;2023-04-05T11:01:53;102335.56;;;24.67;18.71
48968;BME280;46511;53.148;8.204;2023-04-05T11:04:25;102332.84;;;26.92;17.18
48968;BME280;46511;53.148;8.204;2023-04-05T11:07:09;102333.56;;;26.21;17.54
48968;BME280;46511;53.148;8.204;2023-04-05T11:09:53;102322.81;;;28.81;15.83
48968;BME280;46511;53.148;8.204;2023-04-05T11:15:27;102314.56;;;30.49;14.60
48968;BME280;46511;53.148;8.204;2023-04-05T11:18:06;102322.00;;;27.44;15.66
48968;BME280;46511;53.148;8.204;2023-04-05T11:20:48;102312.25;;;24.15;16.80
48968;BME280;46511;53.148;8.204;2023-04-05T11:23:26;102310.81;;;26.12;16.95
48968;BME280;46511;53.148;8.204;2023-04-05T11:26:06;102311.56;;;26.05;16.51
48968;BME280;46511;53.148;8.204;2023-04-05T11:28:37;102298.28;;;28.38;15.49
48968;BME280;46511;53.148;8.204;2023-04-05T11:31:17;102309.56;;;25.03;16.75
48968;BME280;46511;53.148;8.204;2023-04-05T11:33:53;102307.34;;;27.01;17.31
48968;BME280;46511;53.148;8.204;2023-04-05T11:36:34;102302.13;;;27.85;15.23
48968;BME280;46511;53.148;8.204;2023-04-05T11:44:25;102305.44;;;22.65;18.37
48968;BME280;46511;53.148;8.204;2023-04-05T11:46:56;102299.41;;;24.17;18.73
48968;BME280;46511;53.148;8.204;2023-04-05T11:49:28;102294.56;;;25.56;17.11
48968;BME280;46511;53.148;8.204;2023-04-05T11:52:08;102288.97;;;26.85;16.81
48968;BME280;46511;53.148;8.204;2023-04-05T11:54:36;102290.84;;;26.22;16.49
48968;BME280;46511;53.148;8.204;2023-04-05T11:57:10;102282.84;;;23.07;17.31
48968;BME280;46511;53.148;8.204;2023-04-05T11:59:42;102282.00;;;24.29;17.36
48968;BME280;46511;53.148;8.204;2023-04-05T12:02:14;102274.03;;;26.54;16.72
48968;BME280;46511;53.148;8.204;2023-04-05T12:04:56;102274.06;;;25.99;16.63
48968;BME280;46511;53.148;8.204;2023-04-05T12:07:28;102267.69;;;26.89;15.33
48968;BME280;46511;53.148;8.204;2023-04-05T12:12:36;102266.47;;;27.27;16.03
48968;BME280;46511;53.148;8.204;2023-04-05T12:15:09;102267.59;;;25.72;17.00
48968;BME280;46511;53.148;8.204;2023-04-05T12:20:18;102256.56;;;26.01;16.35
48968;BME280;46511;53.148;8.204;2023-04-05T12:22:51;102268.59;;;26.54;15.15
48968;BME280;46511;53.148;8.204;2023-04-05T12:25:24;102254.88;;;26.45;15.50
48968;BME280;46511;53.148;8.204;2023-04-05T12:27:56;102258.91;;;26.14;16.64
48968;BME280;46511;53.148;8.204;2023-04-05T12:30:34;102266.84;;;18.83;20.84
48968;BME280;46511;53.148;8.204;2023-04-05T12:33:08;102263.66;;;17.67;23.16
48968;BME280;46511;53.148;8.204;2023-04-05T12:35:39;102269.84;;;17.10;24.84
48968;BME280;46511;53.148;8.204;2023-04-05T12:38:12;102269.44;;;16.72;23.30
48968;BME280;46511;53.148;8.204;2023-04-05T12:40:45;102259.72;;;17.44;23.17
48968;BME280;46511;53.148;8.204;2023-04-05T12:43:17;102259.66;;;20.59;20.72
48968;BME280;46511;53.148;8.204;2023-04-05T12:45:52;102249.31;;;20.76;19.60
48968;BME280;46511;53.148;8.204;2023-04-05T12:48:25;102250.41;;;19.00;20.96
48968;BME280;46511;53.148;8.204;2023-04-05T12:50:56;102241.63;;;18.84;21.76
48968;BME280;46511;53.148;8.204;2023-04-05T12:53:28;102244.25;;;17.19;22.17
48968;BME280;46511;53.148;8.204;2023-04-05T12:55:59;102235.38;;;18.71;21.65
48968;BME280;46511;53.148;8.204;2023-04-05T12:58:32;102242.31;;;18.88;23.19
48968;BME280;46511;53.148;8.204;2023-04-05T13:01:05;102231.13;;;19.32;21.59
48968;BME280;46511;53.148;8.204;2023-04-05T13:03:36;102240.25;;;18.51;22.06
48968;BME280;46511;53.148;8.204;2023-04-05T13:06:08;102221.50;;;19.79;22.06
48968;BME280;46511;53.148;8.204;2023-04-05T13:08:34;102234.59;;;18.29;22.16
48968;BME280;46511;53.148;8.204;2023-04-05T13:11:05;102220.19;;;21.60;20.57
48968;BME280;46511;53.148;8.204;2023-04-05T13:13:37;102222.69;;;24.54;18.71
48968;BME280;46511;53.148;8.204;2023-04-05T13:16:08;102211.00;;;22.81;19.59
48968;BME280;46511;53.148;8.204;2023-04-05T13:18:39;102222.88;;;21.93;19.92
48968;BME280;46511;53.148;8.204;2023-04-05T13:21:11;102212.47;;;25.23;17.77
48968;BME280;46511;53.148;8.204;2023-04-05T13:23:42;102204.59;;;23.94;17.00
48968;BME280;46511;53.148;8.204;2023-04-05T13:26:14;102197.13;;;26.32;16.33
48968;BME280;46511;53.148;8.204;2023-04-05T13:28:45;102193.22;;;24.88;17.51
48968;BME280;46511;53.148;8.204;2023-04-05T13:31:16;102199.66;;;24.77;17.14
48968;BME280;46511;53.148;8.204;2023-04-05T13:33:42;102186.00;;;25.53;16.46
48968;BME280;46511;53.148;8.204;2023-04-05T13:36:14;102182.34;;;25.99;15.90
48968;BME280;46511;53.148;8.204;2023-04-05T13:38:45;102180.78;;;23.98;17.42
48968;BME280;46511;53.148;8.204;2023-04-05T13:41:16;102184.41;;;23.07;18.00
48968;BME280;46511;53.148;8.204;2023-04-05T13:43:47;102189.59;;;22.25;18.40
48968;BME280;46511;53.148;8.204;2023-04-05T13:46:19;102186.47;;;24.05;18.53
48968;BME280;46511;53.148;8.204;2023-04-05T13:48:50;102177.94;;;22.45;20.41
48968;BME280;46511;53.148;8.204;2023-04-05T13:51:21;102173.69;;;19.19;21.52
48968;BME280;46511;53.148;8.204;2023-04-05T13:53:52;102173.47;;;18.71;22.22